Time;durP1;ratioP1;P1;durP2;ratioP2;P2;SDS_P1;SDS_P2;PMS_P1;PMS_P2;Temp;Humidity;BMP_temperature;BMP_pressure;BME280_temperature;BME280_humidity;BME280_pressure;Samples;Min_cycle;Max_cycle;Signal;HPM_P1;HPM_P2
2021/06/23 00:00:31;;;;;;;3.85;2.53;;;20.40;88.10;;;;;;4988071;28;20407;-73
2021/06/23 00:02:57;;;;;;;4.18;2.35;;;20.40;88.20;;;;;;4972982;28;20530;-74
2021/06/23 00:05:23;;;;;;;5.53;2.35;;;20.40;88.10;;;;;;4973365;28;20034;-74
2021/06/23 00:07:50;;;;;;;6.40;2.30;;;20.40;88.00;;;;;;4973519;28;20022;-73
2021/06/23 00:10:16;;;;;;;6.95;2.30;;;20.40;88.00;;;;;;4973160;28;20101;-73
2021/06/23 00:12:43;;;;;;;4.82;2.58;;;20.40;88.10;;;;;;4972992;28;20106;-74
2021/06/23 00:15:11;;;;;;;5.65;2.30;;;20.40;88.00;;;;;;4973225;28;20106;-73
2021/06/23 00:17:37;;;;;;;4.30;2.38;;;20.40;88.00;;;;;;4972879;28;20483;-73
2021/06/23 00:20:05;;;;;;;7.85;2.83;;;20.40;88.00;;;;;;4973124;28;20054;-73
2021/06/23 00:22:31;;;;;;;4.22;2.20;;;20.40;88.00;;;;;;4990315;28;20034;-73
2021/06/23 00:24:56;;;;;;;4.63;2.20;;;20.40;87.90;;;;;;5023937;28;20442;-73
2021/06/23 00:27:22;;;;;;;6.05;2.33;;;20.40;87.90;;;;;;4992706;28;20026;-73
2021/06/23 00:29:48;;;;;;;6.30;2.42;;;20.30;87.80;;;;;;4992403;28;20026;-73
2021/06/23 00:32:19;;;;;;;4.07;2.28;;;20.30;87.70;;;;;;4992281;28;20061;-73
2021/06/23 00:34:45;;;;;;;5.55;2.53;;;20.40;87.80;;;;;;4992075;28;20026;-74
2021/06/23 00:37:11;;;;;;;3.97;2.10;;;20.40;87.80;;;;;;4991969;28;20540;-73
2021/06/23 00:39:37;;;;;;;3.83;2.15;;;20.40;87.70;;;;;;4990651;28;20027;-74
2021/06/23 00:42:03;;;;;;;3.95;1.98;;;20.30;87.70;;;;;;4991918;28;20086;-73
2021/06/23 00:44:29;;;;;;;5.03;2.55;;;20.30;87.60;;;;;;4991615;28;20057;-73
2021/06/23 00:46:55;;;;;;;5.43;2.30;;;20.30;87.60;;;;;;4991847;28;20034;-74
2021/06/23 00:49:21;;;;;;;3.03;1.70;;;20.30;87.60;;;;;;4992023;28;20041;-73
2021/06/23 00:51:47;;;;;;;5.72;2.33;;;20.30;87.60;;;;;;4991413;28;20033;-73
2021/06/23 00:54:14;;;;;;;3.78;2.10;;;20.30;87.60;;;;;;4992077;28;20380;-73
2021/06/23 00:56:41;;;;;;;6.20;2.20;;;20.30;87.60;;;;;;4991575;28;20022;-74
2021/06/23 00:59:10;;;;;;;5.15;1.60;;;20.30;87.40;;;;;;4991518;28;20129;-73
2021/06/23 01:01:39;;;;;;;5.93;2.20;;;20.30;87.40;;;;;;4991620;28;20081;-73
2021/06/23 01:04:05;;;;;;;4.95;1.90;;;20.30;87.30;;;;;;4991737;28;20089;-73
2021/06/23 01:06:32;;;;;;;5.97;2.13;;;20.30;87.30;;;;;;4991691;28;20035;-73
2021/06/23 01:08:59;;;;;;;3.78;1.70;;;20.30;88.00;;;;;;4991855;28;20029;-73
2021/06/23 01:11:27;;;;;;;5.90;2.13;;;20.30;87.30;;;;;;4991308;28;20023;-73
2021/06/23 01:14:03;;;;;;;3.50;1.70;;;20.30;87.20;;;;;;4991924;28;20026;-74
2021/06/23 01:16:33;;;;;;;4.55;1.80;;;20.30;87.20;;;;;;4991482;28;20085;-73
2021/06/23 01:19:00;;;;;;;4.40;1.70;;;20.30;87.10;;;;;;4991677;28;20113;-73
2021/06/23 01:21:28;;;;;;;5.25;2.13;;;20.30;87.10;;;;;;4990476;28;20041;-73
2021/06/23 01:23:55;;;;;;;4.50;1.88;;;20.30;87.10;;;;;;4991214;28;20057;-73
2021/06/23 01:26:21;;;;;;;4.53;1.90;;;20.30;87.00;;;;;;4991676;28;20026;-73
2021/06/23 01:28:47;;;;;;;4.40;1.90;;;20.30;87.10;;;;;;4990133;28;20073;-74
2021/06/23 01:31:17;;;;;;;3.78;1.90;;;20.20;87.00;;;;;;4991624;28;20454;-73
2021/06/23 01:33:43;;;;;;;3.13;1.63;;;20.20;86.90;;;;;;4991505;28;20034;-73
2021/06/23 01:36:09;;;;;;;4.32;1.60;;;20.20;86.80;;;;;;4991672;28;20026;-73
2021/06/23 01:38:35;;;;;;;6.47;1.83;;;20.30;86.90;;;;;;4991216;28;20027;-73
2021/06/23 01:41:00;;;;;;;5.82;1.40;;;20.20;86.80;;;;;;4991161;28;20034;-73
2021/06/23 01:43:26;;;;;;;6.75;1.67;;;20.20;86.80;;;;;;4991382;28;20026;-73
2021/06/23 01:45:52;;;;;;;4.95;1.95;;;20.20;86.80;;;;;;4991835;28;20036;-74
2021/06/23 01:48:19;;;;;;;2.63;1.33;;;20.20;86.80;;;;;;4991465;28;20026;-73
2021/06/23 01:51:11;;;;;;;4.70;1.98;;;20.20;86.70;;;;;;4990821;28;20459;-73
2021/06/23 01:53:39;;;;;;;6.40;1.50;;;20.20;86.80;;;;;;4988832;28;20104;-74
2021/06/23 01:56:06;;;;;;;5.55;1.77;;;20.20;86.70;;;;;;4991367;28;20030;-74
2021/06/23 01:58:37;;;;;;;3.13;1.55;;;20.20;86.70;;;;;;5006272;28;20022;-73
2021/06/23 02:01:08;;;;;;;6.18;1.90;;;20.20;86.70;;;;;;4992504;28;20118;-74
2021/06/23 02:03:59;;;;;;;4.95;1.50;;;20.20;86.70;;;;;;4994683;28;20030;-74
2021/06/23 02:06:49;;;;;;;4.72;1.60;;;20.20;86.60;;;;;;4994991;28;20390;-74
2021/06/23 02:09:49;;;;;;;5.30;2.15;;;20.20;86.70;;;;;;4994756;28;20027;-74
2021/06/23 02:12:40;;;;;;;3.63;1.30;;;20.20;86.70;;;;;;4994827;28;20481;-73
2021/06/23 02:15:06;;;;;;;2.80;1.40;;;20.20;86.60;;;;;;4995029;28;20429;-74
2021/06/23 02:17:32;;;;;;;4.30;1.65;;;20.20;86.50;;;;;;4993056;28;20027;-72
2021/06/23 02:20:02;;;;;;;2.72;1.25;;;20.20;86.60;;;;;;4994537;28;20517;-73
2021/06/23 02:22:31;;;;;;;4.07;1.45;;;20.10;86.50;;;;;;4994043;28;20418;-73
2021/06/23 02:25:07;;;;;;;3.75;1.27;;;20.20;86.50;;;;;;4994705;28;20029;-73
2021/06/23 02:27:33;;;;;;;3.38;1.40;;;20.10;86.50;;;;;;4994252;28;20041;-73
2021/06/23 02:29:59;;;;;;;4.55;1.40;;;20.10;86.50;;;;;;4994521;28;20030;-74
2021/06/23 02:32:28;;;;;;;4.68;1.45;;;20.10;86.40;;;;;;4994386;28;20022;-73
2021/06/23 02:34:56;;;;;;;4.40;1.60;;;20.10;86.40;;;;;;4992909;28;20502;-73
2021/06/23 02:37:24;;;;;;;3.00;1.17;;;20.10;86.40;;;;;;4994768;28;20105;-73
2021/06/23 02:39:50;;;;;;;3.28;1.13;;;20.10;86.40;;;;;;4994644;28;20024;-73
2021/06/23 02:42:16;;;;;;;4.25;1.52;;;20.10;86.30;;;;;;4994084;28;20050;-74
2021/06/23 02:44:42;;;;;;;3.97;1.42;;;20.10;86.30;;;;;;5009114;28;20019;-73
2021/06/23 02:47:15;;;;;;;3.28;1.30;;;20.10;86.30;;;;;;4994017;28;20380;-73
2021/06/23 02:49:41;;;;;;;3.35;1.35;;;20.10;86.30;;;;;;4993833;28;20019;-73
2021/06/23 02:52:07;;;;;;;5.32;1.45;;;20.10;86.30;;;;;;5008518;28;20037;-75
2021/06/23 02:54:33;;;;;;;2.70;1.45;;;20.10;86.30;;;;;;4994050;28;20064;-73
2021/06/23 02:57:00;;;;;;;3.38;1.38;;;20.10;86.30;;;;;;4994069;28;20037;-73
2021/06/23 02:59:27;;;;;;;2.83;1.42;;;20.00;86.20;;;;;;4993573;28;20018;-73
2021/06/23 03:01:53;;;;;;;2.40;1.17;;;20.10;86.30;;;;;;4993786;28;20121;-74
2021/06/23 03:04:18;;;;;;;4.20;1.40;;;20.10;86.30;;;;;;4993699;28;20109;-73
2021/06/23 03:06:44;;;;;;;2.17;1.05;;;20.10;86.30;;;;;;4993584;28;20022;-73
2021/06/23 03:09:10;;;;;;;6.53;1.67;;;20.00;86.20;;;;;;5008711;28;20379;-73
2021/06/23 03:11:38;;;;;;;3.30;1.10;;;20.00;86.90;;;;;;5008282;28;20027;-73
2021/06/23 03:14:05;;;;;;;4.43;1.35;;;20.00;86.20;;;;;;4993889;28;20034;-73
2021/06/23 03:16:31;;;;;;;4.00;1.23;;;20.00;86.20;;;;;;4993504;28;20022;-73
2021/06/23 03:18:57;;;;;;;7.03;1.52;;;20.10;86.30;;;;;;4993758;28;20022;-74
2021/06/23 03:21:23;;;;;;;4.88;1.20;;;20.00;86.20;;;;;;4992698;28;20042;-73
2021/06/23 03:23:51;;;;;;;3.80;1.33;;;20.00;86.20;;;;;;4993879;28;20030;-73
2021/06/23 03:26:17;;;;;;;4.47;1.25;;;20.10;86.20;;;;;;4993685;28;20080;-73
2021/06/23 03:28:43;;;;;;;4.20;1.45;;;20.10;86.10;;;;;;4993269;28;20034;-73
2021/06/23 03:31:09;;;;;;;2.90;1.10;;;20.10;86.20;;;;;;4993206;28;20536;-73
2021/06/23 03:33:34;;;;;;;1.80;0.70;;;20.10;86.10;;;;;;4993252;28;20022;-73
2021/06/23 03:36:00;;;;;;;4.38;1.40;;;20.00;86.00;;;;;;4993326;28;20030;-73
2021/06/23 03:38:26;;;;;;;1.67;0.90;;;20.00;86.00;;;;;;5008178;28;20034;-74
2021/06/23 03:40:52;;;;;;;4.10;1.35;;;20.00;85.90;;;;;;4993483;28;20026;-74
2021/06/23 03:43:19;;;;;;;2.75;0.98;;;20.00;85.90;;;;;;4993238;28;20109;-73
2021/06/23 03:45:46;;;;;;;5.68;1.33;;;20.10;85.90;;;;;;4992979;28;20025;-73
2021/06/23 03:48:12;;;;;;;3.85;1.33;;;20.00;85.80;;;;;;4992519;28;20077;-73
2021/06/23 03:50:39;;;;;;;1.85;1.13;;;20.00;85.80;;;;;;5007522;28;20041;-73
2021/06/23 03:53:05;;;;;;;3.42;1.20;;;20.00;85.80;;;;;;4992997;28;20026;-73
2021/06/23 03:55:32;;;;;;;3.50;1.17;;;20.00;85.80;;;;;;4992767;28;20041;-73
2021/06/23 03:57:58;;;;;;;4.50;1.20;;;20.00;85.80;;;;;;4992885;28;20062;-74
2021/06/23 04:00:27;;;;;;;3.17;1.10;;;20.00;85.80;;;;;;4992387;28;20064;-73
2021/06/23 04:02:53;;;;;;;3.45;1.00;;;20.00;86.50;;;;;;4993083;28;20033;-73
2021/06/23 04:05:19;;;;;;;2.95;1.20;;;20.00;85.70;;;;;;4992974;28;20026;-75
2021/06/23 04:07:44;;;;;;;5.13;1.10;;;20.00;85.70;;;;;;4992437;28;20021;-76
2021/06/23 04:10:10;;;;;;;2.45;1.00;;;20.00;85.70;;;;;;4992848;28;20030;-75
2021/06/23 04:12:36;;;;;;;4.75;1.30;;;20.00;85.70;;;;;;4992446;28;20383;-74
2021/06/23 04:15:03;;;;;;;3.47;1.40;;;20.00;85.70;;;;;;4992420;28;20018;-74
2021/06/23 04:17:29;;;;;;;3.03;0.93;;;20.00;85.60;;;;;;4991915;28;20026;-73
2021/06/23 04:19:55;;;;;;;3.70;1.15;;;20.00;85.60;;;;;;4991646;28;20040;-76
2021/06/23 04:22:23;;;;;;;3.08;1.45;;;20.00;85.50;;;;;;4991383;28;20072;-73
2021/06/23 04:24:49;;;;;;;4.35;1.13;;;20.00;85.60;;;;;;4992252;28;20046;-75
2021/06/23 04:27:14;;;;;;;3.28;0.95;;;20.00;85.50;;;;;;4992101;28;20069;-77
2021/06/23 04:29:40;;;;;;;3.10;1.15;;;20.00;85.50;;;;;;4990570;28;20033;-74
2021/06/23 04:32:06;;;;;;;3.97;1.20;;;20.00;86.20;;;;;;4992358;28;20085;-74
2021/06/23 04:34:32;;;;;;;3.35;1.02;;;20.00;85.50;;;;;;4991916;28;20022;-74
2021/06/23 04:36:57;;;;;;;4.05;1.10;;;20.00;85.50;;;;;;4990921;28;20105;-75
2021/06/23 04:39:23;;;;;;;4.90;1.00;;;20.00;85.40;;;;;;4990975;28;20034;-73
2021/06/23 04:41:49;;;;;;;3.90;1.10;;;20.00;85.40;;;;;;4992205;28;20500;-74
2021/06/23 04:44:14;;;;;;;3.35;1.10;;;20.00;85.40;;;;;;4991878;28;20042;-75
2021/06/23 04:46:40;;;;;;;4.18;1.20;;;20.00;85.40;;;;;;4990225;28;20038;-75
2021/06/23 04:49:05;;;;;;;2.65;1.23;;;20.00;85.30;;;;;;4992166;28;20042;-74
2021/06/23 04:51:31;;;;;;;3.60;1.17;;;20.00;85.40;;;;;;4991766;28;20045;-75
2021/06/23 04:53:57;;;;;;;2.38;0.90;;;20.00;85.40;;;;;;4992168;28;20134;-73
2021/06/23 04:56:23;;;;;;;1.73;1.00;;;19.90;85.30;;;;;;4992131;28;20593;-74
2021/06/23 04:58:48;;;;;;;3.30;0.95;;;20.00;85.30;;;;;;4992181;28;20030;-74
2021/06/23 05:01:14;;;;;;;3.28;0.90;;;19.90;85.20;;;;;;4991093;28;20034;-76
2021/06/23 05:03:40;;;;;;;6.78;1.08;;;20.00;85.20;;;;;;4991166;28;20065;-74
2021/06/23 05:06:06;;;;;;;3.33;1.08;;;19.90;85.20;;;;;;4991782;28;20018;-73
2021/06/23 05:08:31;;;;;;;3.65;1.00;;;20.00;85.20;;;;;;4990211;28;20027;-73
2021/06/23 05:10:57;;;;;;;4.80;1.00;;;19.90;85.10;;;;;;4990497;28;20088;-73
2021/06/23 05:13:23;;;;;;;5.82;1.00;;;19.90;85.10;;;;;;4991554;28;20100;-73
2021/06/23 05:15:49;;;;;;;3.25;1.00;;;19.90;85.10;;;;;;4991983;28;20019;-73
2021/06/23 05:18:16;;;;;;;2.92;0.90;;;19.90;85.10;;;;;;4991035;28;20045;-73
2021/06/23 05:20:43;;;;;;;4.18;1.65;;;19.90;85.10;;;;;;4991203;28;20030;-73
2021/06/23 05:23:09;;;;;;;3.72;1.10;;;19.90;85.00;;;;;;4991679;28;20046;-73
2021/06/23 05:25:35;;;;;;;3.08;0.95;;;19.90;85.00;;;;;;4991367;28;20026;-73
2021/06/23 05:28:04;;;;;;;4.05;1.10;;;19.90;85.00;;;;;;4991473;28;20077;-73
2021/06/23 05:30:29;;;;;;;3.17;1.10;;;19.90;85.00;;;;;;4991433;28;20027;-73
2021/06/23 05:32:55;;;;;;;2.97;0.88;;;19.90;85.00;;;;;;4991604;28;20513;-73
2021/06/23 05:35:21;;;;;;;2.97;1.13;;;19.90;85.00;;;;;;4992116;28;20034;-74
2021/06/23 05:37:47;;;;;;;2.25;0.85;;;19.90;85.00;;;;;;4995164;28;20026;-74
2021/06/23 05:40:13;;;;;;;3.30;0.90;;;19.90;85.00;;;;;;4995614;28;20056;-76
2021/06/23 05:42:39;;;;;;;3.78;0.90;;;19.90;84.90;;;;;;4995074;28;20117;-74
2021/06/23 05:45:06;;;;;;;4.70;1.35;;;19.90;84.90;;;;;;4995166;28;20022;-73
2021/06/23 05:47:32;;;;;;;4.75;1.40;;;19.90;84.80;;;;;;5028744;28;20030;-73
2021/06/23 05:49:58;;;;;;;3.17;1.15;;;19.90;84.90;;;;;;4994485;28;20081;-73
2021/06/23 05:52:24;;;;;;;3.35;1.05;;;19.90;84.90;;;;;;4994860;28;20545;-75
2021/06/23 05:54:50;;;;;;;3.13;0.80;;;19.90;84.90;;;;;;4995099;28;20094;-73
2021/06/23 05:57:15;;;;;;;4.55;1.10;;;19.90;84.90;;;;;;4993986;28;20117;-74
2021/06/23 05:59:41;;;;;;;3.42;1.35;;;19.90;84.80;;;;;;4993432;28;20084;-73
2021/06/23 06:02:07;;;;;;;1.33;0.80;;;19.90;84.80;;;;;;4994277;28;20118;-74
2021/06/23 06:04:33;;;;;;;3.90;1.05;;;19.90;84.90;;;;;;4993770;28;20023;-74
2021/06/23 06:06:58;;;;;;;3.10;1.52;;;19.80;84.80;;;;;;4992065;28;20761;-73
2021/06/23 06:09:24;;;;;;;4.28;1.42;;;19.90;84.80;;;;;;4993963;28;20018;-74
2021/06/23 06:11:50;;;;;;;5.45;1.13;;;19.80;84.90;;;;;;4995037;28;20039;-72
2021/06/23 06:14:16;;;;;;;2.58;0.80;;;19.90;85.10;;;;;;4993106;28;20022;-73
2021/06/23 06:16:41;;;;;;;4.00;1.40;;;19.90;85.10;;;;;;4993844;28;20033;-72
2021/06/23 06:19:07;;;;;;;3.58;1.38;;;19.80;85.10;;;;;;5003041;28;20033;-72
2021/06/23 06:21:32;;;;;;;3.55;1.10;;;19.80;85.10;;;;;;4994512;28;20418;-75
2021/06/23 06:23:58;;;;;;;2.40;1.10;;;19.90;85.30;;;;;;5008919;28;20026;-73
2021/06/23 06:26:24;;;;;;;3.13;1.08;;;19.90;85.50;;;;;;4993595;28;20040;-74
2021/06/23 06:28:49;;;;;;;3.85;1.23;;;19.90;85.40;;;;;;4994614;28;20097;-75
2021/06/23 06:31:15;;;;;;;4.38;1.50;;;20.00;85.90;;;;;;4994106;28;20376;-76
2021/06/23 06:33:41;;;;;;;4.93;1.40;;;20.00;85.90;;;;;;4993714;28;20038;-74
2021/06/23 06:36:07;;;;;;;5.47;2.08;;;20.00;86.00;;;;;;4994172;28;20034;-76
2021/06/23 06:38:32;;;;;;;6.20;2.70;;;20.00;86.10;;;;;;4993919;28;20026;-75
2021/06/23 06:40:58;;;;;;;8.65;2.72;;;20.10;86.30;;;;;;4993644;28;20371;-76
2021/06/23 06:43:24;;;;;;;6.35;2.30;;;20.10;86.40;;;;;;4994005;28;20100;-77
2021/06/23 06:45:51;;;;;;;7.55;2.35;;;20.10;86.70;;;;;;4993582;28;20092;-72
2021/06/23 06:48:20;;;;;;;6.05;2.30;;;20.10;86.90;;;;;;4997107;28;20033;-76
2021/06/23 06:50:46;;;;;;;7.40;2.45;;;20.10;87.00;;;;;;4993704;28;20533;-77
2021/06/23 06:53:11;;;;;;;5.20;1.70;;;20.10;87.50;;;;;;4993473;28;20038;-73
2021/06/23 06:55:37;;;;;;;11.18;2.30;;;20.20;87.40;;;;;;4992970;28;20033;-75
2021/06/23 06:58:03;;;;;;;7.03;2.53;;;20.20;87.60;;;;;;5002678;28;20101;-78
2021/06/23 07:00:28;;;;;;;7.95;2.28;;;20.20;87.50;;;;;;4992946;28;20034;-83
2021/06/23 07:02:54;;;;;;;8.05;2.25;;;20.20;87.20;;;;;;4992074;28;20042;-82
2021/06/23 07:05:21;;;;;;;8.68;2.85;;;20.20;87.20;;;;;;4993460;28;20153;-73
2021/06/23 07:07:47;;;;;;;7.38;2.33;;;20.20;86.90;;;;;;4992964;28;20161;-77
2021/06/23 07:10:13;;;;;;;5.47;1.83;;;20.20;86.80;;;;;;4993735;28;20113;-75
2021/06/23 07:12:38;;;;;;;9.75;2.40;;;20.20;86.50;;;;;;4993366;28;20018;-76
2021/06/23 07:15:05;;;;;;;10.10;2.17;;;20.30;86.50;;;;;;4993019;28;20390;-75
2021/06/23 07:17:31;;;;;;;6.97;2.10;;;20.20;85.90;;;;;;4991641;28;20026;-76
2021/06/23 07:19:57;;;;;;;6.47;2.00;;;20.20;86.10;;;;;;4993238;28;20022;-79
2021/06/23 07:22:23;;;;;;;5.95;2.08;;;20.30;86.10;;;;;;4993094;28;20038;-78
2021/06/23 07:24:50;;;;;;;13.07;3.03;;;20.30;86.00;;;;;;4993734;28;20018;-75
2021/06/23 07:27:16;;;;;;;5.10;1.65;;;20.30;85.80;;;;;;4992561;28;20390;-74
2021/06/23 07:29:41;;;;;;;5.03;2.33;;;20.30;85.70;;;;;;4993300;28;20105;-72
2021/06/23 07:32:22;;;;;;;10.82;1.95;;;20.30;85.80;;;;;;4993337;28;20211;-75
2021/06/23 07:37:14;;;;;;;4.70;2.03;;;20.40;85.70;;;;;;4993380;28;20022;-77
2021/06/23 07:39:40;;;;;;;7.45;1.80;;;20.30;85.60;;;;;;4992563;28;20487;-74
2021/06/23 07:42:08;;;;;;;6.50;1.88;;;20.40;85.50;;;;;;4992677;28;20065;-74
2021/06/23 07:44:38;;;;;;;4.75;1.92;;;20.40;85.40;;;;;;4992293;28;20117;-78
2021/06/23 07:47:11;;;;;;;4.50;1.70;;;20.40;86.10;;;;;;4992897;28;20066;-75
2021/06/23 07:49:40;;;;;;;5.85;1.90;;;20.40;85.40;;;;;;4992685;28;20434;-72
2021/06/23 08:09:23;;;;;;;6.10;2.20;;;20.40;84.70;;;;;;4972520;28;20073;-74
2021/06/23 08:11:40;;;;;;;10.65;3.25;;;20.40;84.60;;;;;;4975267;28;20042;-73
2021/06/23 08:14:06;;;;;;;4.75;1.83;;;20.40;84.50;;;;;;4992073;28;20026;-83
2021/06/23 08:16:33;;;;;;;5.32;2.33;;;20.40;84.40;;;;;;4992399;28;20402;-82
2021/06/23 08:18:59;;;;;;;4.50;1.75;;;20.30;84.50;;;;;;4992654;28;20030;-82
2021/06/23 08:21:24;;;;;;;6.38;2.40;;;20.40;84.40;;;;;;4991975;28;20602;-79
2021/06/23 08:23:50;;;;;;;4.70;2.30;;;20.40;84.40;;;;;;4992812;28;20521;-76
2021/06/23 08:26:16;;;;;;;7.72;2.35;;;20.40;84.30;;;;;;4992296;28;20022;-83
2021/06/23 08:28:41;;;;;;;5.65;2.20;;;20.40;84.20;;;;;;4992261;28;20102;-75
2021/06/23 08:31:07;;;;;;;5.88;2.40;;;20.40;84.20;;;;;;4992475;28;20022;-82
2021/06/23 08:33:33;;;;;;;5.40;2.47;;;20.40;84.10;;;;;;4992044;28;20045;-77
2021/06/23 08:35:58;;;;;;;4.65;2.25;;;20.40;84.00;;;;;;4992376;28;20053;-83
2021/06/23 08:38:24;;;;;;;5.60;2.08;;;20.50;83.90;;;;;;4991873;28;20050;-84
2021/06/23 08:40:50;;;;;;;4.95;2.28;;;20.50;83.80;;;;;;4992561;28;20022;-76
2021/06/23 08:43:18;;;;;;;4.78;2.20;;;20.50;83.60;;;;;;4991654;28;20486;-83
2021/06/23 08:45:44;;;;;;;4.53;2.45;;;20.60;83.50;;;;;;4991472;28;20023;-84
2021/06/23 08:48:11;;;;;;;3.90;2.20;;;20.60;83.40;;;;;;4991982;28;20101;-82
2021/06/23 08:50:37;;;;;;;4.68;1.95;;;20.60;83.30;;;;;;4991568;28;20014;-84
2021/06/23 08:53:03;;;;;;;5.82;2.42;;;20.60;84.00;;;;;;4992193;28;20023;-82
2021/06/23 08:55:29;;;;;;;6.63;2.45;;;20.60;83.10;;;;;;4991753;28;20025;-83
2021/06/23 08:57:54;;;;;;;3.97;2.22;;;20.60;83.20;;;;;;4992061;28;20031;-81
2021/06/23 09:00:24;;;;;;;4.88;2.28;;;20.60;83.20;;;;;;4991976;28;20086;-83
2021/06/23 09:02:50;;;;;;;5.15;2.65;;;20.60;83.20;;;;;;4992341;28;20045;-82
2021/06/23 09:05:17;;;;;;;4.78;2.25;;;20.60;83.20;;;;;;4991858;28;20405;-83
2021/06/23 09:07:46;;;;;;;4.18;2.08;;;20.60;83.10;;;;;;4991731;28;20513;-83
2021/06/23 09:10:24;;;;;;;3.38;1.85;;;20.60;83.10;;;;;;4990559;28;20446;-72
2021/06/23 09:13:01;;;;;;;3.55;1.85;;;20.50;83.20;;;;;;4991368;28;20037;-83
2021/06/23 09:15:40;;;;;;;4.30;1.98;;;20.50;83.20;;;;;;4994283;28;20041;-82
2021/06/23 09:18:11;;;;;;;4.45;2.45;;;20.50;83.20;;;;;;4991714;28;20033;-82
2021/06/23 09:20:37;;;;;;;5.38;2.05;;;20.50;83.30;;;;;;4991476;28;20490;-83
2021/06/23 09:23:03;;;;;;;3.85;2.00;;;20.50;83.20;;;;;;4990993;28;20035;-82
2021/06/23 09:25:32;;;;;;;3.92;2.08;;;20.50;83.20;;;;;;4990850;28;20029;-74
2021/06/23 09:28:01;;;;;;;5.78;2.30;;;20.50;83.30;;;;;;4991652;28;20036;-81
2021/06/23 09:30:31;;;;;;;4.20;2.13;;;20.50;83.20;;;;;;4990965;28;20053;-83
2021/06/23 09:33:07;;;;;;;5.57;2.40;;;20.50;83.20;;;;;;4991589;28;20434;-77
2021/06/23 09:35:33;;;;;;;5.18;2.35;;;20.50;83.20;;;;;;4990873;28;20054;-73
2021/06/23 09:37:59;;;;;;;3.50;2.20;;;20.50;83.20;;;;;;4991169;28;20469;-73
2021/06/23 09:40:29;;;;;;;5.03;2.00;;;20.50;83.20;;;;;;4991497;28;20126;-82
2021/06/23 09:43:02;;;;;;;4.78;2.53;;;20.50;83.20;;;;;;4991603;28;20576;-73
2021/06/23 09:45:30;;;;;;;5.70;2.00;;;20.50;83.20;;;;;;4990940;28;20078;-83
2021/06/23 09:48:06;;;;;;;3.85;2.20;;;20.50;83.20;;;;;;4991551;28;20049;-73
2021/06/23 09:50:33;;;;;;;4.72;1.85;;;20.50;83.20;;;;;;4991161;28;20037;-83
2021/06/23 09:53:12;;;;;;;4.00;2.30;;;20.50;83.20;;;;;;4991802;28;20022;-81
2021/06/23 09:55:47;;;;;;;3.92;2.33;;;20.50;83.20;;;;;;4991336;28;20034;-83
2021/06/23 09:58:19;;;;;;;6.55;2.40;;;20.50;83.20;;;;;;4991411;28;20494;-83
2021/06/23 10:01:09;;;;;;;4.60;2.78;;;20.50;83.10;;;;;;4990487;28;20065;-82
2021/06/23 10:04:01;;;;;;;5.25;2.22;;;20.50;83.10;;;;;;4991292;28;20030;-78
2021/06/23 10:06:29;;;;;;;4.25;2.50;;;20.60;83.10;;;;;;4971790;28;20039;-72
2021/06/23 10:09:22;;;;;;;5.07;2.55;;;20.60;83.00;;;;;;4972841;28;20094;-75
2021/06/23 10:12:02;;;;;;;3.38;2.22;;;20.60;83.00;;;;;;4991313;28;20122;-75
2021/06/23 10:14:32;;;;;;;5.18;2.70;;;20.60;83.90;;;;;;4991030;28;20030;-74
2021/06/23 10:17:03;;;;;;;7.20;2.95;;;20.60;84.10;;;;;;4991065;28;20034;-73
2021/06/23 10:19:29;;;;;;;6.50;3.50;;;20.60;84.00;;;;;;4991087;28;20045;-73
2021/06/23 10:21:58;;;;;;;8.38;4.45;;;20.60;84.00;;;;;;4992142;28;20034;-72
2021/06/23 10:24:27;;;;;;;7.35;3.35;;;20.60;84.20;;;;;;4994541;28;20379;-73
2021/06/23 10:26:53;;;;;;;5.88;3.33;;;20.60;84.10;;;;;;4993654;28;20084;-80
2021/06/23 10:29:24;;;;;;;10.18;5.13;;;20.60;84.00;;;;;;4995019;28;20561;-83
2021/06/23 10:31:51;;;;;;;7.18;3.95;;;20.60;84.60;;;;;;4994409;28;20022;-84
2021/06/23 10:34:18;;;;;;;11.40;4.90;;;20.70;84.30;;;;;;4994077;28;20038;-73
2021/06/23 10:36:45;;;;;;;14.63;8.02;;;20.60;84.60;;;;;;4993219;28;20061;-75
2021/06/23 10:39:12;;;;;;;15.05;7.78;;;20.70;86.80;;;;;;4994346;28;20027;-75
2021/06/23 10:41:39;;;;;;;16.13;7.18;;;20.70;87.70;;;;;;4994071;28;20073;-74
2021/06/23 10:44:19;;;;;;;13.55;7.13;;;20.70;87.80;;;;;;4994072;28;20030;-73
2021/06/23 10:46:46;;;;;;;15.73;7.55;;;20.70;87.70;;;;;;4993865;28;20390;-77
2021/06/23 10:49:16;;;;;;;15.20;7.30;;;20.70;88.10;;;;;;4994396;28;20030;-74
2021/06/23 10:51:43;;;;;;;13.93;7.13;;;20.70;88.10;;;;;;4994152;28;20026;-81
2021/06/23 10:54:27;;;;;;;17.85;6.82;;;20.80;87.80;;;;;;4994269;28;20065;-80
2021/06/23 10:56:52;;;;;;;11.00;6.82;;;20.80;87.90;;;;;;4994455;28;20041;-75
2021/06/23 10:59:34;;;;;;;13.23;6.18;;;20.80;87.80;;;;;;4994164;28;20026;-83
2021/06/23 11:02:09;;;;;;;15.40;8.18;;;20.90;88.30;;;;;;4990718;28;20062;-82
2021/06/23 11:05:05;;;;;;;12.65;7.68;;;20.90;88.50;;;;;;4993102;28;20022;-80
2021/06/23 11:07:39;;;;;;;13.20;7.30;;;20.90;88.80;;;;;;4992753;28;20045;-72
2021/06/23 11:10:17;;;;;;;15.80;7.53;;;20.90;88.40;;;;;;4993333;28;20478;-74
2021/06/23 11:12:54;;;;;;;13.77;6.20;;;20.90;88.40;;;;;;4993584;28;20068;-78
2021/06/23 11:15:33;;;;;;;14.80;6.40;;;20.90;88.30;;;;;;4994263;28;20018;-80
2021/06/23 11:18:21;;;;;;;11.07;5.97;;;20.90;88.60;;;;;;4992947;28;20034;-81
2021/06/23 11:20:59;;;;;;;17.95;6.45;;;20.80;88.20;;;;;;4992903;28;20085;-79
2021/06/23 11:23:47;;;;;;;14.43;6.00;;;20.80;85.70;;;;;;4993121;28;20034;-80
2021/06/23 11:26:21;;;;;;;15.48;6.97;;;20.80;84.10;;;;;;4993707;28;20034;-75
2021/06/23 11:28:49;;;;;;;15.97;6.73;;;20.70;83.20;;;;;;5008392;28;20446;-78
2021/06/23 11:31:15;;;;;;;14.68;5.93;;;20.70;82.60;;;;;;4992661;28;20031;-83
2021/06/23 11:33:42;;;;;;;17.83;6.82;;;20.70;82.30;;;;;;4991900;28;20054;-74
2021/06/23 11:36:17;;;;;;;15.05;6.82;;;20.70;83.20;;;;;;4992566;28;20031;-77
2021/06/23 11:38:43;;;;;;;13.37;7.47;;;20.70;83.70;;;;;;4991698;28;20034;-75
2021/06/23 11:41:10;;;;;;;13.32;6.50;;;20.80;83.30;;;;;;4992774;28;20034;-75
2021/06/23 11:43:36;;;;;;;15.75;6.50;;;20.80;83.50;;;;;;4992811;28;20049;-76
2021/06/23 11:46:02;;;;;;;16.70;6.68;;;20.70;83.10;;;;;;4992484;28;20030;-74
2021/06/23 11:48:28;;;;;;;14.30;6.22;;;20.80;83.00;;;;;;4993065;28;20034;-74
2021/06/23 11:50:54;;;;;;;13.77;6.95;;;20.80;82.80;;;;;;4991638;28;20054;-79
2021/06/23 11:53:22;;;;;;;14.43;7.18;;;20.80;82.40;;;;;;4992838;28;20028;-77
2021/06/23 11:55:50;;;;;;;19.00;7.38;;;20.70;82.50;;;;;;4992445;28;20073;-79
2021/06/23 11:58:16;;;;;;;13.60;6.68;;;20.80;82.00;;;;;;4992434;28;20033;-82
2021/06/23 12:00:43;;;;;;;15.90;7.30;;;20.80;82.20;;;;;;4992059;28;20517;-77
2021/06/23 12:03:12;;;;;;;13.95;6.93;;;20.80;82.40;;;;;;5003364;28;20486;-74
2021/06/23 12:05:39;;;;;;;15.35;6.80;;;20.80;81.80;;;;;;5011901;28;20041;-77
2021/06/23 12:08:05;;;;;;;15.35;7.63;;;20.80;82.40;;;;;;4998527;28;20510;-82
2021/06/23 12:10:35;;;;;;;14.38;6.95;;;20.80;82.00;;;;;;4992578;28;20090;-82
2021/06/23 12:13:02;;;;;;;14.98;6.47;;;20.90;82.60;;;;;;4991679;28;20026;-78
2021/06/23 12:15:29;;;;;;;13.10;7.10;;;20.80;82.20;;;;;;4992179;28;20035;-77
2021/06/23 12:18:00;;;;;;;11.02;7.00;;;20.90;82.30;;;;;;4992423;28;20022;-78
2021/06/23 12:20:31;;;;;;;13.85;6.93;;;20.90;82.20;;;;;;4992383;28;20034;-75
2021/06/23 12:22:59;;;;;;;14.57;6.95;;;21.00;82.60;;;;;;4992135;28;20069;-81
2021/06/23 12:25:27;;;;;;;15.55;7.07;;;21.00;82.30;;;;;;4992477;28;20028;-78
2021/06/23 12:27:54;;;;;;;14.05;7.18;;;21.10;82.40;;;;;;4992291;28;20399;-81
2021/06/23 12:30:21;;;;;;;15.90;7.00;;;21.10;82.20;;;;;;4992276;28;20022;-81
2021/06/23 12:32:47;;;;;;;16.65;7.03;;;21.10;82.20;;;;;;4991926;28;20018;-82
2021/06/23 12:35:13;;;;;;;14.82;7.13;;;21.10;82.20;;;;;;4992276;28;20463;-80
2021/06/23 12:37:41;;;;;;;10.48;6.22;;;21.10;82.40;;;;;;4992165;28;20034;-83
2021/06/23 12:40:08;;;;;;;12.02;7.13;;;21.00;82.40;;;;;;4992114;28;20026;-83
2021/06/23 12:42:33;;;;;;;10.55;6.85;;;21.00;82.60;;;;;;4991522;28;20030;-76
2021/06/23 12:44:59;;;;;;;13.55;8.15;;;21.00;82.80;;;;;;4991631;28;20033;-83
2021/06/23 12:47:25;;;;;;;10.63;6.18;;;21.00;82.90;;;;;;4991174;28;20057;-83
2021/06/23 12:49:50;;;;;;;13.30;7.45;;;21.00;83.00;;;;;;4993585;28;20092;-82
2021/06/23 12:52:16;;;;;;;14.25;6.82;;;21.00;83.20;;;;;;4993429;28;20390;-82
2021/06/23 12:54:42;;;;;;;15.73;7.68;;;20.90;83.20;;;;;;4991235;28;20073;-83
2021/06/23 12:57:07;;;;;;;10.38;6.22;;;21.00;83.40;;;;;;4995568;28;20022;-82
2021/06/23 12:59:33;;;;;;;13.38;6.90;;;21.00;83.40;;;;;;4991059;28;20410;-81
2021/06/23 13:02:00;;;;;;;11.02;6.63;;;21.00;83.40;;;;;;4990916;28;20168;-80
2021/06/23 13:04:26;;;;;;;15.50;7.53;;;21.00;83.40;;;;;;4991849;28;20018;-81
2021/06/23 13:06:52;;;;;;;10.27;6.82;;;21.00;83.40;;;;;;4992311;28;20026;-80
2021/06/23 13:09:18;;;;;;;12.73;6.95;;;21.10;83.40;;;;;;4991965;28;20030;-81